createdAt,value
2018-03-20T00:00:24.375Z,0.0
2018-03-20T00:11:21.161Z,0.0
2018-03-20T00:21:50.670Z,0.0
2018-03-20T00:32:17.506Z,0.0
2018-03-20T00:53:18.261Z,0.0
2018-03-20T01:03:32.875Z,0.0
2018-03-20T01:13:46.990Z,0.0
2018-03-20T01:24:01.293Z,0.0
2018-03-20T01:34:46.439Z,0.0
2018-03-20T01:45:03.336Z,0.0
2018-03-20T01:55:15.592Z,0.0
2018-03-20T02:05:29.910Z,0.0
2018-03-20T02:16:15.309Z,0.0
2018-03-20T02:26:38.976Z,0.0
2018-03-20T02:36:53.060Z,0.0
2018-03-20T02:47:38.740Z,0.0
2018-03-20T02:58:24.496Z,0.0
2018-03-20T03:08:36.547Z,0.0
2018-03-20T03:18:49.329Z,0.0
2018-03-20T03:29:01.993Z,0.0
2018-03-20T03:39:13.632Z,0.0
2018-03-20T03:49:25.099Z,0.0
2018-03-20T03:59:53.199Z,0.0
2018-03-20T04:10:06.919Z,0.0
2018-03-20T04:20:20.511Z,0.0
2018-03-20T04:30:34.814Z,0.0
2018-03-20T04:41:19.706Z,0.0
2018-03-20T04:51:31.904Z,0.0
2018-03-20T05:01:45.467Z,0.0
2018-03-20T05:12:02.795Z,0.0
2018-03-20T05:22:17.188Z,0.0
2018-03-20T05:32:37.768Z,0.0
2018-03-20T05:42:51.448Z,10.0
2018-03-20T05:53:05.786Z,25.0
2018-03-20T06:03:17.387Z,30.0
2018-03-20T06:13:36.620Z,60.0
2018-03-20T06:23:57.115Z,60.0
2018-03-20T06:34:10.637Z,115.0
2018-03-20T06:44:24.931Z,130.0
2018-03-20T06:54:49.379Z,150.0
2018-03-20T07:05:12.511Z,155.0
2018-03-20T07:15:26.441Z,235.0
2018-03-20T07:25:39.896Z,300.0
2018-03-20T07:36:25.655Z,890.0
2018-03-20T07:47:11.017Z,1240.0
2018-03-20T07:57:56.015Z,610.0
2018-03-20T08:08:07.810Z,650.0
2018-03-20T08:18:33.584Z,660.0
2018-03-20T08:28:47.747Z,1265.0
2018-03-20T08:39:02.040Z,1915.0
2018-03-20T08:49:13.200Z,1695.0
2018-03-20T08:59:24.401Z,2205.0
2018-03-20T09:09:41.626Z,1955.0
2018-03-20T09:19:56.424Z,2020.0
2018-03-20T09:31:01.802Z,2575.0
2018-03-20T09:41:23.240Z,2615.0
2018-03-20T09:54:15.039Z,2380.0
2018-03-20T10:06:56.326Z,2745.0
2018-03-20T10:17:10.278Z,2835.0
2018-03-20T10:27:24.485Z,2740.0
2018-03-20T10:37:38.463Z,3005.0
2018-03-20T10:48:23.206Z,2750.0
2018-03-20T10:58:57.413Z,2810.0
2018-03-20T11:09:26.547Z,3005.0
2018-03-20T11:20:10.119Z,2745.0
2018-03-20T11:30:41.463Z,2750.0
2018-03-20T11:41:46.352Z,2670.0
2018-03-20T11:54:08.646Z,3135.0
2018-03-20T12:05:58.014Z,2700.0
2018-03-20T12:18:23.951Z,3150.0
2018-03-20T12:41:59.390Z,2755.0
2018-03-20T12:52:47.473Z,2620.0
2018-03-20T13:03:03.194Z,2935.0
2018-03-20T13:15:15.842Z,2480.0
2018-03-20T13:38:59.377Z,2470.0
2018-03-20T13:49:25.580Z,2435.0
2018-03-20T13:59:47.623Z,2350.0
2018-03-20T14:10:02.044Z,2005.0
2018-03-20T14:20:14.020Z,2205.0
2018-03-20T14:30:28.111Z,2105.0
2018-03-20T14:40:46.641Z,1955.0
2018-03-20T14:51:02.535Z,1925.0
2018-03-20T15:01:19.157Z,1615.0
2018-03-20T15:12:26.912Z,1530.0
2018-03-20T15:22:40.100Z,1210.0
2018-03-20T16:23:34.340Z,135.0
2018-03-20T17:06:52.833Z,60.0
2018-03-20T17:17:03.946Z,40.0
2018-03-20T17:27:23.619Z,25.0
2018-03-20T17:37:35.844Z,15.0
2018-03-20T17:48:02.341Z,5.0
2018-03-20T17:58:27.775Z,0.0
2018-03-20T18:09:17.154Z,0.0
2018-03-20T18:19:30.945Z,0.0
2018-03-20T18:29:42.451Z,0.0
2018-03-20T18:40:27.832Z,0.0
2018-03-20T18:50:43.519Z,0.0
2018-03-20T19:00:57.626Z,0.0
2018-03-20T19:54:13.046Z,0.0
2018-03-20T20:05:05.288Z,0.0
2018-03-20T20:59:24.164Z,0.0
2018-03-20T21:09:36.569Z,0.0
2018-03-20T21:20:25.065Z,0.0
2018-03-20T21:30:37.343Z,0.0
2018-03-20T21:40:50.807Z,0.0
2018-03-20T21:51:05.192Z,0.0
2018-03-20T22:01:19.788Z,0.0
2018-03-20T22:11:32.464Z,0.0
2018-03-20T22:21:46.639Z,0.0
2018-03-20T22:32:03.498Z,0.0
2018-03-20T22:42:15.483Z,0.0
2018-03-20T22:52:31.493Z,0.0
2018-03-20T23:03:17.130Z,0.0
2018-03-20T23:13:30.661Z,0.0
2018-03-20T23:23:44.517Z,0.0
2018-03-20T23:33:55.967Z,0.0
2018-03-20T23:44:40.500Z,0.0
2018-03-20T23:54:54.340Z,0.0
